sensor_id;sensor_type;location;lat;lon;timestamp;pressure;altitude;pressure_sealevel;temperature;humidity
76553;BME280;65395;53.168;18.156;2023-03-24T00:01:52;100162.84;;;7.95;82.73
76553;BME280;65395;53.168;18.156;2023-03-24T00:04:18;100155.32;;;7.92;83.03
76553;BME280;65395;53.168;18.156;2023-03-24T00:06:45;100159.14;;;7.88;82.85
76553;BME280;65395;53.168;18.156;2023-03-24T00:09:15;100160.92;;;7.82;83.02
76553;BME280;65395;53.168;18.156;2023-03-24T00:11:43;100161.86;;;7.78;83.43
76553;BME280;65395;53.168;18.156;2023-03-24T00:14:10;100164.31;;;7.76;83.47
76553;BME280;65395;53.168;18.156;2023-03-24T00:16:39;100166.16;;;7.73;83.47
76553;BME280;65395;53.168;18.156;2023-03-24T00:19:11;100165.05;;;7.69;83.40
76553;BME280;65395;53.168;18.156;2023-03-24T00:21:40;100163.98;;;7.66;83.29
76553;BME280;65395;53.168;18.156;2023-03-24T00:24:09;100164.39;;;7.60;83.31
76553;BME280;65395;53.168;18.156;2023-03-24T00:26:39;100167.90;;;7.57;83.27
76553;BME280;65395;53.168;18.156;2023-03-24T00:29:09;100165.32;;;7.52;83.08
76553;BME280;65395;53.168;18.156;2023-03-24T00:31:37;100167.31;;;7.46;82.99
76553;BME280;65395;53.168;18.156;2023-03-24T00:34:08;100160.82;;;7.39;83.03
76553;BME280;65395;53.168;18.156;2023-03-24T00:36:36;100164.06;;;7.33;82.87
76553;BME280;65395;53.168;18.156;2023-03-24T00:39:03;100164.40;;;7.24;82.72
76553;BME280;65395;53.168;18.156;2023-03-24T00:41:32;100164.88;;;7.16;83.05
76553;BME280;65395;53.168;18.156;2023-03-24T00:43:59;100166.20;;;7.08;82.92
76553;BME280;65395;53.168;18.156;2023-03-24T00:46:29;100159.58;;;7.05;83.16
76553;BME280;65395;53.168;18.156;2023-03-24T00:49:00;100152.27;;;7.02;83.14
76553;BME280;65395;53.168;18.156;2023-03-24T00:51:32;100149.15;;;6.95;82.73
76553;BME280;65395;53.168;18.156;2023-03-24T00:54:00;100143.28;;;6.88;82.95
76553;BME280;65395;53.168;18.156;2023-03-24T00:56:29;100137.19;;;6.82;82.85
76553;BME280;65395;53.168;18.156;2023-03-24T00:58:57;100142.77;;;6.76;83.02
76553;BME280;65395;53.168;18.156;2023-03-24T01:01:25;100137.59;;;6.69;82.98
76553;BME280;65395;53.168;18.156;2023-03-24T01:03:53;100134.15;;;6.65;83.08
76553;BME280;65395;53.168;18.156;2023-03-24T01:06:20;100130.79;;;6.60;83.03
76553;BME280;65395;53.168;18.156;2023-03-24T01:08:49;100121.38;;;6.55;82.96
76553;BME280;65395;53.168;18.156;2023-03-24T01:11:21;100121.20;;;6.49;82.90
76553;BME280;65395;53.168;18.156;2023-03-24T01:13:51;100125.12;;;6.44;82.76
76553;BME280;65395;53.168;18.156;2023-03-24T01:16:19;100119.55;;;6.37;83.10
76553;BME280;65395;53.168;18.156;2023-03-24T01:18:51;100120.05;;;6.31;82.91
76553;BME280;65395;53.168;18.156;2023-03-24T01:21:18;100117.71;;;6.26;83.12
76553;BME280;65395;53.168;18.156;2023-03-24T01:23:45;100117.58;;;6.22;83.45
76553;BME280;65395;53.168;18.156;2023-03-24T01:26:12;100116.91;;;6.18;83.39
76553;BME280;65395;53.168;18.156;2023-03-24T01:28:39;100123.46;;;6.15;83.34
76553;BME280;65395;53.168;18.156;2023-03-24T01:31:08;100114.80;;;6.11;83.35
76553;BME280;65395;53.168;18.156;2023-03-24T01:33:36;100116.23;;;6.07;83.15
76553;BME280;65395;53.168;18.156;2023-03-24T01:36:05;100116.92;;;6.02;82.83
76553;BME280;65395;53.168;18.156;2023-03-24T01:38:32;100114.95;;;5.98;82.97
76553;BME280;65395;53.168;18.156;2023-03-24T01:41:00;100114.40;;;5.94;83.24
76553;BME280;65395;53.168;18.156;2023-03-24T01:43:30;100121.46;;;5.93;83.29
76553;BME280;65395;53.168;18.156;2023-03-24T01:46:07;100114.18;;;5.90;83.19
76553;BME280;65395;53.168;18.156;2023-03-24T01:48:42;100107.57;;;5.87;83.08
76553;BME280;65395;53.168;18.156;2023-03-24T01:51:18;100106.42;;;5.86;83.58
76553;BME280;65395;53.168;18.156;2023-03-24T01:53:56;100110.50;;;5.85;83.76
76553;BME280;65395;53.168;18.156;2023-03-24T01:56:24;100108.66;;;5.85;83.56
76553;BME280;65395;53.168;18.156;2023-03-24T01:58:57;100104.54;;;5.84;83.55
76553;BME280;65395;53.168;18.156;2023-03-24T02:01:32;100097.63;;;5.85;83.68
76553;BME280;65395;53.168;18.156;2023-03-24T02:04:11;100095.95;;;5.88;83.91
76553;BME280;65395;53.168;18.156;2023-03-24T02:06:43;100096.56;;;5.90;83.75
76553;BME280;65395;53.168;18.156;2023-03-24T02:09:13;100094.48;;;5.89;83.59
76553;BME280;65395;53.168;18.156;2023-03-24T02:11:40;100096.66;;;5.89;83.71
76553;BME280;65395;53.168;18.156;2023-03-24T02:14:08;100092.17;;;5.89;83.92
76553;BME280;65395;53.168;18.156;2023-03-24T02:16:55;100092.22;;;5.89;83.93
76553;BME280;65395;53.168;18.156;2023-03-24T02:25:18;100078.95;;;5.85;84.04
76553;BME280;65395;53.168;18.156;2023-03-24T02:33:55;100074.85;;;5.82;83.53
76553;BME280;65395;53.168;18.156;2023-03-24T02:36:48;100076.59;;;5.78;83.51
76553;BME280;65395;53.168;18.156;2023-03-24T02:39:39;100081.94;;;5.77;83.71
76553;BME280;65395;53.168;18.156;2023-03-24T02:42:24;100083.98;;;5.77;83.88
76553;BME280;65395;53.168;18.156;2023-03-24T02:45:06;100079.90;;;5.76;83.63
76553;BME280;65395;53.168;18.156;2023-03-24T02:47:55;100086.16;;;5.76;83.67
76553;BME280;65395;53.168;18.156;2023-03-24T02:50:38;100082.88;;;5.77;83.66
76553;BME280;65395;53.168;18.156;2023-03-24T02:53:20;100081.09;;;5.77;83.47
76553;BME280;65395;53.168;18.156;2023-03-24T02:56:23;100078.95;;;5.76;83.50
76553;BME280;65395;53.168;18.156;2023-03-24T02:58:55;100080.84;;;5.77;83.62
76553;BME280;65395;53.168;18.156;2023-03-24T03:01:30;100072.05;;;5.76;83.59
76553;BME280;65395;53.168;18.156;2023-03-24T03:04:14;100075.30;;;5.76;83.94
76553;BME280;65395;53.168;18.156;2023-03-24T03:06:48;100080.52;;;5.79;83.85
76553;BME280;65395;53.168;18.156;2023-03-24T03:09:20;100080.77;;;5.79;83.65
76553;BME280;65395;53.168;18.156;2023-03-24T03:11:52;100080.67;;;5.79;83.56
76553;BME280;65395;53.168;18.156;2023-03-24T03:14:30;100075.86;;;5.78;83.63
76553;BME280;65395;53.168;18.156;2023-03-24T03:17:08;100070.43;;;5.78;83.78
76553;BME280;65395;53.168;18.156;2023-03-24T03:19:41;100063.00;;;5.80;83.97
76553;BME280;65395;53.168;18.156;2023-03-24T03:22:15;100067.34;;;5.78;83.60
76553;BME280;65395;53.168;18.156;2023-03-24T03:24:46;100064.11;;;5.75;83.57
76553;BME280;65395;53.168;18.156;2023-03-24T03:27:19;100060.52;;;5.72;83.73
76553;BME280;65395;53.168;18.156;2023-03-24T03:29:52;100056.13;;;5.71;83.87
76553;BME280;65395;53.168;18.156;2023-03-24T03:32:24;100056.77;;;5.71;83.83
76553;BME280;65395;53.168;18.156;2023-03-24T03:35:04;100057.05;;;5.70;83.90
76553;BME280;65395;53.168;18.156;2023-03-24T03:40:46;100049.45;;;5.77;84.67
76553;BME280;65395;53.168;18.156;2023-03-24T03:43:18;100050.96;;;5.80;84.66
76553;BME280;65395;53.168;18.156;2023-03-24T03:45:45;100046.36;;;5.84;84.49
76553;BME280;65395;53.168;18.156;2023-03-24T03:48:12;100042.27;;;5.87;84.10
76553;BME280;65395;53.168;18.156;2023-03-24T03:50:41;100038.02;;;5.89;84.03
76553;BME280;65395;53.168;18.156;2023-03-24T03:53:08;100033.20;;;5.92;84.36
76553;BME280;65395;53.168;18.156;2023-03-24T03:55:35;100030.09;;;5.97;84.36
76553;BME280;65395;53.168;18.156;2023-03-24T03:58:04;100032.05;;;6.03;84.61
76553;BME280;65395;53.168;18.156;2023-03-24T04:00:39;100032.28;;;6.09;84.62
76553;BME280;65395;53.168;18.156;2023-03-24T04:03:42;100029.04;;;6.17;85.01
76553;BME280;65395;53.168;18.156;2023-03-24T04:09:22;100022.07;;;6.29;84.70
76553;BME280;65395;53.168;18.156;2023-03-24T04:15:02;100008.02;;;6.39;84.85
76553;BME280;65395;53.168;18.156;2023-03-24T04:18:09;100002.64;;;6.44;84.76
76553;BME280;65395;53.168;18.156;2023-03-24T04:21:03;100006.13;;;6.47;84.65
76553;BME280;65395;53.168;18.156;2023-03-24T04:23:44;99999.86;;;6.51;84.98
76553;BME280;65395;53.168;18.156;2023-03-24T04:26:27;100004.44;;;6.56;84.89
76553;BME280;65395;53.168;18.156;2023-03-24T04:32:20;99996.22;;;6.61;84.86
76553;BME280;65395;53.168;18.156;2023-03-24T04:34:56;99986.08;;;6.65;84.81
76553;BME280;65395;53.168;18.156;2023-03-24T04:37:43;99982.92;;;6.67;84.88
76553;BME280;65395;53.168;18.156;2023-03-24T04:40:16;99982.48;;;6.70;84.94
76553;BME280;65395;53.168;18.156;2023-03-24T04:42:50;99977.91;;;6.72;84.74
76553;BME280;65395;53.168;18.156;2023-03-24T04:45:20;99972.10;;;6.72;84.85
76553;BME280;65395;53.168;18.156;2023-03-24T04:48:11;99970.25;;;6.73;84.78
76553;BME280;65395;53.168;18.156;2023-03-24T04:50:53;99962.43;;;6.75;84.73
76553;BME280;65395;53.168;18.156;2023-03-24T04:53:20;99959.23;;;6.75;84.50
76553;BME280;65395;53.168;18.156;2023-03-24T04:56:21;99953.48;;;6.74;84.28
76553;BME280;65395;53.168;18.156;2023-03-24T04:59:00;99949.50;;;6.73;84.36
76553;BME280;65395;53.168;18.156;2023-03-24T05:01:28;99951.88;;;6.72;84.41
76553;BME280;65395;53.168;18.156;2023-03-24T05:04:17;99949.17;;;6.70;84.27
76553;BME280;65395;53.168;18.156;2023-03-24T05:06:44;99953.76;;;6.72;84.58
76553;BME280;65395;53.168;18.156;2023-03-24T05:09:13;99946.71;;;6.74;84.60
76553;BME280;65395;53.168;18.156;2023-03-24T05:11:40;99942.19;;;6.77;84.48
76553;BME280;65395;53.168;18.156;2023-03-24T05:14:08;99939.75;;;6.79;84.33
76553;BME280;65395;53.168;18.156;2023-03-24T05:16:35;99942.11;;;6.79;84.25
76553;BME280;65395;53.168;18.156;2023-03-24T05:19:03;99940.95;;;6.80;84.20
76553;BME280;65395;53.168;18.156;2023-03-24T05:21:31;99934.98;;;6.79;83.99
76553;BME280;65395;53.168;18.156;2023-03-24T05:23:58;99929.12;;;6.79;83.95
76553;BME280;65395;53.168;18.156;2023-03-24T05:26:26;99927.08;;;6.80;84.22
76553;BME280;65395;53.168;18.156;2023-03-24T05:29:02;99922.94;;;6.85;84.53
76553;BME280;65395;53.168;18.156;2023-03-24T05:31:29;99924.77;;;6.91;84.26
76553;BME280;65395;53.168;18.156;2023-03-24T05:34:05;99924.69;;;6.93;83.94
76553;BME280;65395;53.168;18.156;2023-03-24T05:36:37;99928.32;;;6.97;84.30
76553;BME280;65395;53.168;18.156;2023-03-24T05:39:04;99921.00;;;7.04;84.60
76553;BME280;65395;53.168;18.156;2023-03-24T05:41:45;99921.48;;;7.12;84.67
76553;BME280;65395;53.168;18.156;2023-03-24T05:44:12;99916.05;;;7.20;84.67
76553;BME280;65395;53.168;18.156;2023-03-24T05:46:39;99916.63;;;7.28;84.66
76553;BME280;65395;53.168;18.156;2023-03-24T05:49:08;99914.61;;;7.36;84.67
76553;BME280;65395;53.168;18.156;2023-03-24T05:51:39;99916.02;;;7.43;84.50
76553;BME280;65395;53.168;18.156;2023-03-24T05:54:06;99910.45;;;7.49;84.54
76553;BME280;65395;53.168;18.156;2023-03-24T05:56:38;99907.27;;;7.55;84.51
76553;BME280;65395;53.168;18.156;2023-03-24T05:59:14;99898.85;;;7.57;84.44
76553;BME280;65395;53.168;18.156;2023-03-24T06:01:51;99899.15;;;7.66;84.35
76553;BME280;65395;53.168;18.156;2023-03-24T06:04:25;99899.53;;;7.73;84.29
76553;BME280;65395;53.168;18.156;2023-03-24T06:06:57;99899.82;;;7.79;84.40
76553;BME280;65395;53.168;18.156;2023-03-24T06:09:30;99899.66;;;7.86;84.50
76553;BME280;65395;53.168;18.156;2023-03-24T06:12:04;99894.35;;;7.94;84.52
76553;BME280;65395;53.168;18.156;2023-03-24T06:14:32;99889.55;;;8.01;84.39
76553;BME280;65395;53.168;18.156;2023-03-24T06:17:07;99880.97;;;8.10;84.20
76553;BME280;65395;53.168;18.156;2023-03-24T06:19:34;99877.98;;;8.17;84.25
76553;BME280;65395;53.168;18.156;2023-03-24T06:22:12;99875.73;;;8.26;84.17
76553;BME280;65395;53.168;18.156;2023-03-24T06:24:39;99874.70;;;8.35;84.30
76553;BME280;65395;53.168;18.156;2023-03-24T06:27:10;99872.73;;;8.46;84.29
76553;BME280;65395;53.168;18.156;2023-03-24T06:29:37;99870.08;;;8.57;84.20
76553;BME280;65395;53.168;18.156;2023-03-24T06:32:05;99872.67;;;8.67;84.08
76553;BME280;65395;53.168;18.156;2023-03-24T06:34:36;99867.69;;;8.78;83.96
76553;BME280;65395;53.168;18.156;2023-03-24T06:37:13;99863.79;;;8.88;83.86
76553;BME280;65395;53.168;18.156;2023-03-24T06:39:41;99863.88;;;9.01;83.75
76553;BME280;65395;53.168;18.156;2023-03-24T06:42:08;99861.13;;;9.12;83.60
76553;BME280;65395;53.168;18.156;2023-03-24T06:44:35;99862.52;;;9.24;83.64
76553;BME280;65395;53.168;18.156;2023-03-24T06:47:03;99860.32;;;9.38;83.55
76553;BME280;65395;53.168;18.156;2023-03-24T06:49:32;99853.52;;;9.53;83.21
76553;BME280;65395;53.168;18.156;2023-03-24T06:52:00;99846.86;;;9.68;82.99
76553;BME280;65395;53.168;18.156;2023-03-24T06:54:27;99854.35;;;9.83;82.83
76553;BME280;65395;53.168;18.156;2023-03-24T06:56:55;99850.78;;;10.01;82.58
76553;BME280;65395;53.168;18.156;2023-03-24T06:59:22;99847.96;;;10.16;82.37
76553;BME280;65395;53.168;18.156;2023-03-24T07:01:51;99847.19;;;10.30;82.10
76553;BME280;65395;53.168;18.156;2023-03-24T07:04:20;99854.59;;;10.43;81.90
76553;BME280;65395;53.168;18.156;2023-03-24T07:06:54;99851.85;;;10.53;81.50
76553;BME280;65395;53.168;18.156;2023-03-24T07:09:21;99843.91;;;10.60;81.35
76553;BME280;65395;53.168;18.156;2023-03-24T07:11:48;99838.70;;;10.68;81.15
76553;BME280;65395;53.168;18.156;2023-03-24T07:14:14;99838.82;;;10.75;80.95
76553;BME280;65395;53.168;18.156;2023-03-24T07:16:41;99838.55;;;10.81;80.81
76553;BME280;65395;53.168;18.156;2023-03-24T07:19:21;99835.69;;;10.86;80.55
76553;BME280;65395;53.168;18.156;2023-03-24T07:21:52;99836.77;;;10.93;80.67
76553;BME280;65395;53.168;18.156;2023-03-24T07:24:24;99835.54;;;11.00;80.61
76553;BME280;65395;53.168;18.156;2023-03-24T07:27:01;99835.52;;;11.08;80.65
76553;BME280;65395;53.168;18.156;2023-03-24T07:29:29;99836.31;;;11.15;80.53
76553;BME280;65395;53.168;18.156;2023-03-24T07:32:05;99837.60;;;11.22;80.48
76553;BME280;65395;53.168;18.156;2023-03-24T07:34:34;99833.38;;;11.25;80.39
76553;BME280;65395;53.168;18.156;2023-03-24T07:37:02;99830.54;;;11.30;80.04
76553;BME280;65395;53.168;18.156;2023-03-24T07:39:29;99824.48;;;11.35;80.03
76553;BME280;65395;53.168;18.156;2023-03-24T07:41:56;99820.64;;;11.40;79.79
76553;BME280;65395;53.168;18.156;2023-03-24T07:44:33;99817.00;;;11.41;79.60
76553;BME280;65395;53.168;18.156;2023-03-24T07:47:00;99821.04;;;11.39;79.46
76553;BME280;65395;53.168;18.156;2023-03-24T07:49:27;99818.49;;;11.40;79.59
76553;BME280;65395;53.168;18.156;2023-03-24T07:52:04;99811.30;;;11.44;79.63
76553;BME280;65395;53.168;18.156;2023-03-24T07:54:36;99812.52;;;11.46;79.77
76553;BME280;65395;53.168;18.156;2023-03-24T07:57:02;99809.84;;;11.48;79.76
76553;BME280;65395;53.168;18.156;2023-03-24T07:59:29;99804.09;;;11.54;79.47
76553;BME280;65395;53.168;18.156;2023-03-24T08:02:16;99794.40;;;11.60;79.65
76553;BME280;65395;53.168;18.156;2023-03-24T08:04:53;99791.70;;;11.67;79.68
76553;BME280;65395;53.168;18.156;2023-03-24T08:07:30;99785.92;;;11.78;79.57
76553;BME280;65395;53.168;18.156;2023-03-24T08:09:56;99781.09;;;11.88;79.55
76553;BME280;65395;53.168;18.156;2023-03-24T08:12:23;99775.17;;;11.98;79.31
76553;BME280;65395;53.168;18.156;2023-03-24T08:14:50;99773.72;;;12.05;79.32
76553;BME280;65395;53.168;18.156;2023-03-24T08:17:17;99771.52;;;12.08;79.37
76553;BME280;65395;53.168;18.156;2023-03-24T08:19:44;99765.09;;;12.15;79.12
76553;BME280;65395;53.168;18.156;2023-03-24T08:22:13;99762.35;;;12.20;79.14
76553;BME280;65395;53.168;18.156;2023-03-24T08:24:39;99761.41;;;12.31;78.93
76553;BME280;65395;53.168;18.156;2023-03-24T08:27:06;99761.83;;;12.47;78.85
76553;BME280;65395;53.168;18.156;2023-03-24T08:29:34;99751.13;;;12.64;78.70
76553;BME280;65395;53.168;18.156;2023-03-24T08:32:01;99749.23;;;12.77;78.50
76553;BME280;65395;53.168;18.156;2023-03-24T08:34:28;99747.23;;;12.88;78.33
76553;BME280;65395;53.168;18.156;2023-03-24T08:36:54;99747.17;;;12.96;78.11
76553;BME280;65395;53.168;18.156;2023-03-24T08:39:21;99748.71;;;13.03;77.85
76553;BME280;65395;53.168;18.156;2023-03-24T08:41:49;99744.91;;;13.13;78.01
76553;BME280;65395;53.168;18.156;2023-03-24T08:44:16;99736.01;;;13.23;77.80
76553;BME280;65395;53.168;18.156;2023-03-24T08:46:43;99737.33;;;13.33;77.87
76553;BME280;65395;53.168;18.156;2023-03-24T08:49:09;99742.02;;;13.41;77.48
76553;BME280;65395;53.168;18.156;2023-03-24T08:51:36;99735.26;;;13.45;77.12
76553;BME280;65395;53.168;18.156;2023-03-24T08:54:03;99730.95;;;13.45;77.20
76553;BME280;65395;53.168;18.156;2023-03-24T08:56:31;99722.57;;;13.46;77.19
76553;BME280;65395;53.168;18.156;2023-03-24T08:58:57;99717.72;;;13.45;76.96
76553;BME280;65395;53.168;18.156;2023-03-24T09:01:24;99716.55;;;13.42;76.89
76553;BME280;65395;53.168;18.156;2023-03-24T09:03:51;99715.97;;;13.41;77.26
76553;BME280;65395;53.168;18.156;2023-03-24T09:06:18;99709.38;;;13.44;77.09
76553;BME280;65395;53.168;18.156;2023-03-24T09:08:45;99707.98;;;13.52;77.01
76553;BME280;65395;53.168;18.156;2023-03-24T09:11:15;99699.71;;;13.63;76.77
76553;BME280;65395;53.168;18.156;2023-03-24T09:13:42;99699.95;;;13.77;76.47
76553;BME280;65395;53.168;18.156;2023-03-24T09:16:09;99699.30;;;13.89;75.96
76553;BME280;65395;53.168;18.156;2023-03-24T09:18:36;99694.88;;;14.05;75.30
76553;BME280;65395;53.168;18.156;2023-03-24T09:21:04;99692.61;;;14.19;75.10
76553;BME280;65395;53.168;18.156;2023-03-24T09:23:31;99689.27;;;14.30;74.93
76553;BME280;65395;53.168;18.156;2023-03-24T09:25:59;99678.98;;;14.43;74.81
76553;BME280;65395;53.168;18.156;2023-03-24T09:28:26;99679.85;;;14.60;74.95
76553;BME280;65395;53.168;18.156;2023-03-24T09:30:58;99681.48;;;14.76;74.62
76553;BME280;65395;53.168;18.156;2023-03-24T09:33:27;99677.88;;;14.93;74.44
76553;BME280;65395;53.168;18.156;2023-03-24T09:35:57;99688.38;;;15.05;73.03
76553;BME280;65395;53.168;18.156;2023-03-24T09:38:24;99675.96;;;15.17;73.41
76553;BME280;65395;53.168;18.156;2023-03-24T09:40:55;99670.85;;;15.31;71.94
76553;BME280;65395;53.168;18.156;2023-03-24T09:43:36;99663.83;;;15.41;71.96
76553;BME280;65395;53.168;18.156;2023-03-24T09:46:11;99658.13;;;15.53;72.28
76553;BME280;65395;53.168;18.156;2023-03-24T09:48:46;99666.38;;;15.62;71.65
76553;BME280;65395;53.168;18.156;2023-03-24T09:51:21;99660.61;;;15.62;71.04
76553;BME280;65395;53.168;18.156;2023-03-24T09:56:37;99653.52;;;15.64;69.75
76553;BME280;65395;53.168;18.156;2023-03-24T10:01:43;99641.63;;;15.47;69.67
76553;BME280;65395;53.168;18.156;2023-03-24T10:04:16;99640.58;;;15.36;70.07
76553;BME280;65395;53.168;18.156;2023-03-24T10:06:44;99636.63;;;15.27;70.00
76553;BME280;65395;53.168;18.156;2023-03-24T10:09:23;99641.81;;;15.26;70.00
76553;BME280;65395;53.168;18.156;2023-03-24T10:12:12;99638.20;;;15.27;69.34
76553;BME280;65395;53.168;18.156;2023-03-24T10:15:02;99623.47;;;15.32;69.94
76553;BME280;65395;53.168;18.156;2023-03-24T10:23:17;99629.91;;;15.64;67.92
76553;BME280;65395;53.168;18.156;2023-03-24T10:25:55;99620.61;;;15.84;67.92
76553;BME280;65395;53.168;18.156;2023-03-24T10:28:41;99623.36;;;16.11;67.92
76553;BME280;65395;53.168;18.156;2023-03-24T10:31:13;99619.71;;;16.40;66.63
76553;BME280;65395;53.168;18.156;2023-03-24T10:33:43;99619.14;;;16.54;66.60
76553;BME280;65395;53.168;18.156;2023-03-24T10:36:13;99613.84;;;16.67;65.87
76553;BME280;65395;53.168;18.156;2023-03-24T10:38:41;99607.61;;;16.74;66.09
76553;BME280;65395;53.168;18.156;2023-03-24T10:41:21;99609.16;;;16.83;64.52
76553;BME280;65395;53.168;18.156;2023-03-24T10:43:49;99601.55;;;16.83;63.85
76553;BME280;65395;53.168;18.156;2023-03-24T10:46:20;99595.82;;;16.86;64.10
76553;BME280;65395;53.168;18.156;2023-03-24T10:48:50;99602.38;;;16.86;63.80
76553;BME280;65395;53.168;18.156;2023-03-24T10:51:22;99597.75;;;16.95;63.84
76553;BME280;65395;53.168;18.156;2023-03-24T10:54:09;99584.95;;;17.07;63.89
76553;BME280;65395;53.168;18.156;2023-03-24T10:56:39;99579.44;;;17.25;64.42
76553;BME280;65395;53.168;18.156;2023-03-24T11:01:58;99586.83;;;17.81;62.31
76553;BME280;65395;53.168;18.156;2023-03-24T11:04:26;99597.27;;;17.92;62.20
76553;BME280;65395;53.168;18.156;2023-03-24T11:09:44;99591.81;;;17.88;60.99
76553;BME280;65395;53.168;18.156;2023-03-24T11:12:23;99582.92;;;17.80;61.01
76553;BME280;65395;53.168;18.156;2023-03-24T11:14:50;99589.34;;;17.71;60.19
76553;BME280;65395;53.168;18.156;2023-03-24T11:17:20;99591.77;;;17.70;60.46
76553;BME280;65395;53.168;18.156;2023-03-24T11:19:51;99585.48;;;17.73;61.11
76553;BME280;65395;53.168;18.156;2023-03-24T11:22:18;99582.29;;;17.78;60.66
76553;BME280;65395;53.168;18.156;2023-03-24T11:24:49;99576.10;;;17.83;61.41
76553;BME280;65395;53.168;18.156;2023-03-24T11:27:18;99576.57;;;17.92;60.75
76553;BME280;65395;53.168;18.156;2023-03-24T11:29:51;99583.95;;;17.98;60.10
76553;BME280;65395;53.168;18.156;2023-03-24T11:32:23;99584.42;;;17.93;59.67
76553;BME280;65395;53.168;18.156;2023-03-24T11:35:04;99581.41;;;17.81;59.35
76553;BME280;65395;53.168;18.156;2023-03-24T11:37:34;99573.73;;;17.66;59.68
76553;BME280;65395;53.168;18.156;2023-03-24T11:40:23;99572.30;;;17.62;59.85
76553;BME280;65395;53.168;18.156;2023-03-24T11:42:56;99571.76;;;17.62;59.45
76553;BME280;65395;53.168;18.156;2023-03-24T11:45:33;99573.54;;;17.59;59.41
76553;BME280;65395;53.168;18.156;2023-03-24T11:48:32;99577.42;;;17.54;59.90
76553;BME280;65395;53.168;18.156;2023-03-24T11:50:56;99574.58;;;17.53;59.59
76553;BME280;65395;53.168;18.156;2023-03-24T11:53:29;99567.65;;;17.49;59.78
76553;BME280;65395;53.168;18.156;2023-03-24T11:56:12;99569.86;;;17.41;60.03
76553;BME280;65395;53.168;18.156;2023-03-24T11:58:46;99563.13;;;17.29;60.17
76553;BME280;65395;53.168;18.156;2023-03-24T12:01:26;99560.83;;;17.15;60.62
76553;BME280;65395;53.168;18.156;2023-03-24T12:09:41;99578.16;;;16.77;61.53
76553;BME280;65395;53.168;18.156;2023-03-24T12:12:36;99576.27;;;16.62;62.16
76553;BME280;65395;53.168;18.156;2023-03-24T12:20:53;99574.95;;;16.03;64.03
76553;BME280;65395;53.168;18.156;2023-03-24T12:23:30;99572.86;;;15.88;64.69
76553;BME280;65395;53.168;18.156;2023-03-24T12:29:06;99571.22;;;15.66;65.79
76553;BME280;65395;53.168;18.156;2023-03-24T12:31:54;99573.23;;;15.58;66.22
76553;BME280;65395;53.168;18.156;2023-03-24T12:37:32;99589.25;;;15.38;67.28
76553;BME280;65395;53.168;18.156;2023-03-24T12:40:36;99594.16;;;15.25;67.99
76553;BME280;65395;53.168;18.156;2023-03-24T12:43:18;99593.44;;;15.12;68.49
76553;BME280;65395;53.168;18.156;2023-03-24T12:45:49;99599.71;;;15.02;68.95
76553;BME280;65395;53.168;18.156;2023-03-24T12:48:32;99594.89;;;14.95;69.74
76553;BME280;65395;53.168;18.156;2023-03-24T12:54:17;99583.77;;;14.87;70.33
76553;BME280;65395;53.168;18.156;2023-03-24T12:56:53;99580.91;;;14.85;70.53
76553;BME280;65395;53.168;18.156;2023-03-24T12:59:37;99581.28;;;14.91;70.33
76553;BME280;65395;53.168;18.156;2023-03-24T13:02:35;99575.01;;;14.91;70.43
76553;BME280;65395;53.168;18.156;2023-03-24T13:05:10;99575.81;;;14.88;70.69
76553;BME280;65395;53.168;18.156;2023-03-24T13:07:42;99576.12;;;14.88;70.78
76553;BME280;65395;53.168;18.156;2023-03-24T13:10:16;99565.89;;;14.87;70.73
76553;BME280;65395;53.168;18.156;2023-03-24T13:12:54;99559.84;;;14.97;70.67
76553;BME280;65395;53.168;18.156;2023-03-24T13:18:26;99562.11;;;15.26;70.55
76553;BME280;65395;53.168;18.156;2023-03-24T13:21:02;99553.13;;;15.43;70.16
76553;BME280;65395;53.168;18.156;2023-03-24T13:32:28;99552.84;;;15.86;69.12
76553;BME280;65395;53.168;18.156;2023-03-24T13:35:05;99545.91;;;15.88;68.95
76553;BME280;65395;53.168;18.156;2023-03-24T13:37:39;99546.16;;;15.89;68.85
76553;BME280;65395;53.168;18.156;2023-03-24T13:40:17;99541.52;;;15.92;68.54
76553;BME280;65395;53.168;18.156;2023-03-24T13:42:51;99540.98;;;16.02;68.48
76553;BME280;65395;53.168;18.156;2023-03-24T13:45:25;99540.55;;;16.03;68.22
76553;BME280;65395;53.168;18.156;2023-03-24T13:48:04;99538.62;;;15.95;67.88
76553;BME280;65395;53.168;18.156;2023-03-24T13:50:33;99538.12;;;15.86;67.76
76553;BME280;65395;53.168;18.156;2023-03-24T13:53:06;99531.19;;;15.81;67.95
76553;BME280;65395;53.168;18.156;2023-03-24T13:55:38;99535.02;;;15.91;67.92
76553;BME280;65395;53.168;18.156;2023-03-24T13:58:18;99531.98;;;16.01;67.74
76553;BME280;65395;53.168;18.156;2023-03-24T14:01:14;99530.77;;;16.15;67.26
76553;BME280;65395;53.168;18.156;2023-03-24T14:03:46;99531.60;;;16.23;66.92
76553;BME280;65395;53.168;18.156;2023-03-24T14:06:46;99529.10;;;16.27;66.73
76553;BME280;65395;53.168;18.156;2023-03-24T14:09:25;99532.21;;;16.26;66.63
76553;BME280;65395;53.168;18.156;2023-03-24T14:12:15;99538.33;;;16.24;65.74
76553;BME280;65395;53.168;18.156;2023-03-24T14:15:11;99530.91;;;16.23;65.76
76553;BME280;65395;53.168;18.156;2023-03-24T14:17:41;99529.82;;;16.21;65.57
76553;BME280;65395;53.168;18.156;2023-03-24T14:20:12;99536.21;;;16.21;64.91
76553;BME280;65395;53.168;18.156;2023-03-24T14:22:44;99519.84;;;16.27;65.08
76553;BME280;65395;53.168;18.156;2023-03-24T14:25:22;99519.92;;;16.36;65.21
76553;BME280;65395;53.168;18.156;2023-03-24T14:27:52;99524.33;;;16.42;64.40
76553;BME280;65395;53.168;18.156;2023-03-24T14:30:26;99510.42;;;16.50;64.34
76553;BME280;65395;53.168;18.156;2023-03-24T14:32:57;99507.54;;;16.57;63.84
76553;BME280;65395;53.168;18.156;2023-03-24T14:35:38;99496.88;;;16.60;63.14
76553;BME280;65395;53.168;18.156;2023-03-24T14:38:23;99489.77;;;16.63;63.15